Brownfield, ME (04010)

7:46 AM EDT on March 31, 2015 (GMT -0400)
misty lane | | Change Station
CLOSE
Current Station
Personal Weather Station
Location: Brownfield, ME
Elevation: 404 ft
Nearby Weather Stations

Elev 404 ft 43.94 °N, 70.87 °W | Updated 13 minutes ago

Mostly Cloudy
Mostly Cloudy
33.1 °F
Feels Like 33 °F
N
2.0
Wind Variable Wind from NW
Gusts 15.0 mph

Today
High -- | Low -- °F
--% Chance of Precip.
Yesterday
High -- | Low -- °F
Precip. -- in
6:27 AM 7:09 PM
Waxing Gibbous, 86% visible
Pressure 29.70 in
Visibility 10.0 miles
Clouds Mostly Cloudy 3700 ft
Windchill 33 °F
Dew Point 21 °F
Humidity 62%
Rainfall 0.00 in
Snow Depth Not available.
UV 0 out of 12
Pollen 5.70 out of 12
Air Quality Not available.
Flu Activity Not available.
METAR KIZG 311054Z AUTO 29016G25KT 10SM BKN037 00/M07 A2968 RMK AO2 SLP056 T00001072

More Conditions Fewer Conditions

Pressure 29.70 in
Visibility 10.0 miles
Clouds Mostly Cloudy 3700 ft
Windchill 33 °F
Dew Point 21 °F
Humidity 62%
Rainfall 0.00 in
Snow Depth Not available.
UV 0 out of 12
Pollen 5.70 out of 12
Air Quality Not available.
Flu Activity Not available.
METAR KIZG 311054Z AUTO 29016G25KT 10SM BKN037 00/M07 A2968 RMK AO2 SLP056 T00001072

More Conditions Fewer Conditions

10-Day Weather Forecast

Almanac

Astronomy

Mar. 31, 2015 Rise Set
Actual Time
Civil Twilight
Nautical Twilight
Astronomical Twilight
Moon
Length of Visible Light
Length of Day
Tomorrow will be .
, % of the Moon is Illuminated

Today's Extremes

State Highs State Lows

Community

WunderPhotos

Upload Photos

1,809,745 photos uploaded!

WunderBlogs® & News

Nearby

Air Quality

  Air Quality AQ Index Pollutant
Not available.

Snow Depth

Station Depth Elevation

Earthquake Activity

City Distance Mag. Time & Date
Minimum magnitude displayed is 2.5.

Coastal Water Temperatures

Place Temperature

Stations

Nearby Weather Stations

Station Location Temp. Windchill Dew Point Humidity Wind Precip. Elev Updated Type